Torre De Belem — CSIO — position and weather

sailwx.info

Track history (hours):
 
Tides and Currents Weather Stations Pressure Air Temp Water Temp Dewpoint Dewpoint Depression Visibility Wind Speed Wind Dir Waves Ship Positions

Torre De Belem

Last reported at 2017-Nov-16 11:12 UTC. Time now 2017-Nov-18 02:57 UTC.
Position N 38°42' W 009°25'.

Length 14 m.

MMSI: 263671850.

Date/timePositionNaut miles runAvg speedWind from/ knotsBaromVisibWave heightAir tempDewpointWater temp
2017-Nov-16 11:12N 38°42' W 009°25'1 4.8
2017-Nov-16 11:00N 38°41' W 009°24'1 0.0
2017-Nov-15 14:27N 38°42' W 009°25'510.2
2017-Nov-15 13:58N 38°37' W 009°23'510.7
2017-Nov-15 13:30N 38°42' W 009°25'0 0.0
2017-Nov-15 13:00N 38°42' W 009°25'5 9.2
2017-Nov-15 12:30N 38°37' W 009°23'5 9.1
2017-Nov-15 12:00N 38°42' W 009°25'0 0.0
2017-Nov-15 11:30N 38°42' W 009°25'0 0.0
2017-Nov-15 10:59N 38°42' W 009°25'510.1
2017-Nov-15 10:30N 38°38' W 009°22'5 9.6
2017-Nov-15 10:00N 38°42' W 009°25'0 0.0
2017-Nov-15 09:30N 38°42' W 009°25'0 0.0
2017-Nov-15 09:00N 38°42' W 009°25'0 0.0
2017-Nov-15 08:31N 38°42' W 009°25'0 0.0
2017-Nov-15 08:01N 38°42' W 009°25'0 0.0
2017-Nov-15 07:30N 38°42' W 009°25'0 0.0
2017-Nov-15 07:01N 38°42' W 009°25'0 0.0
2017-Nov-15 06:31N 38°42' W 009°25'0 0.0
2017-Nov-15 06:01N 38°42' W 009°25'0 0.0
2017-Nov-15 05:30N 38°42' W 009°25'2 4.7
2017-Nov-15 05:00N 38°40' W 009°24'815.2
2017-Nov-15 04:29N 38°42' W 009°14'0 0.0
2017-Nov-15 04:00N 38°42' W 009°14'0 0.0
2017-Nov-15 03:30N 38°42' W 009°14'0 0.0
2017-Nov-15 03:00N 38°42' W 009°14'4 7.6
2017-Nov-15 02:28N 38°40' W 009°19'510.6
2017-Nov-15 01:59N 38°42' W 009°25'0 0.0
2017-Nov-15 01:30N 38°42' W 009°25'0 0.0
2017-Nov-15 01:00N 38°42' W 009°25'0 0.0
2017-Nov-15 00:30N 38°42' W 009°25'2 4.2
2017-Nov-15 00:00N 38°40' W 009°26'2 4.2
2017-Nov-14 23:30N 38°42' W 009°25'0 0.0
2017-Nov-14 23:00N 38°42' W 009°25'0 0.0
2017-Nov-14 22:30N 38°42' W 009°25'1 1.1
2017-Nov-14 22:00N 38°41' W 009°24'2 4.3
2017-Nov-14 21:30N 38°39' W 009°24'3 5.4
2017-Nov-14 21:00N 38°42' W 009°25'0 0.0
2017-Nov-14 15:21N 38°42' W 009°25'411.4
2017-Nov-14 15:00N 38°38' W 009°25'4 7.7
2017-Nov-14 14:30N 38°42' W 009°25'0 0.0
2017-Nov-14 14:00N 38°42' W 009°25'0 0.0
2017-Nov-14 13:30N 38°42' W 009°25'1 1.5
2017-Nov-14 13:00N 38°41' W 009°25'1 0.2
2017-Nov-14 08:53N 38°42' W 009°25'512.3
2017-Nov-14 08:30N 38°37' W 009°25'5 9.2
2017-Nov-14 08:00N 38°42' W 009°25'0 0.3
2017-Nov-14 07:30N 38°42' W 009°25'0 0.0
2017-Nov-14 07:00N 38°42' W 009°25'0 0.0
2017-Nov-14 06:30N 38°42' W 009°25'2 3.4
2017-Nov-14 06:00N 38°40' W 009°26'2 0.1
2017-Nov-13 01:38N 38°42' W 009°25'1 9.8
2017-Nov-13 01:30N 38°40' W 009°25'1 0.3
2017-Nov-12 21:33N 38°42' W 009°25'0 0.0
2017-Nov-12 21:31N 38°42' W 009°25'0 0.0
2017-Nov-12 21:00N 38°42' W 009°25'1 2.1
2017-Nov-12 20:29N 38°41' W 009°25'1 2.1
2017-Nov-12 20:00N 38°42' W 009°25'0 0.3
2017-Nov-12 19:30N 38°42' W 009°25'0 0.0
2017-Nov-12 19:00N 38°42' W 009°25'0 0.0
2017-Nov-12 07:08N 38°42' W 009°25'213.2
2017-Nov-12 07:00N 38°40' W 009°24'2 3.8
2017-Nov-12 06:30N 38°42' W 009°25'0 0.0
2017-Nov-12 06:00N 38°42' W 009°25'0 0.0
2017-Nov-12 05:30N 38°42' W 009°25'3 5.8
2017-Nov-12 05:00N 38°41' W 009°22'3 0.4
2017-Nov-11 21:20N 38°42' W 009°25'413.7
2017-Nov-11 21:00N 38°37' W 009°24'4 0.7
2017-Nov-11 14:52N 38°42' W 009°25'0 0.0
2017-Nov-11 09:16N 38°42' W 009°25'2 9.8
2017-Nov-11 09:00N 38°39' W 009°26'2 2.6
2017-Nov-11 08:03N 38°42' W 009°25'0 0.0
2017-Nov-11 08:00N 38°42' W 009°25'5 9.7
2017-Nov-11 07:30N 38°37' W 009°23'5 9.7
2017-Nov-11 07:00N 38°42' W 009°25'0 0.0
2017-Nov-10 23:38N 38°42' W 009°25'1 6.4
2017-Nov-10 23:30N 38°41' W 009°24'2 3.8
2017-Nov-10 23:01N 38°39' W 009°24'3 0.2
2017-Nov-10 11:06N 38°42' W 009°25'0 1.3
2017-Nov-10 11:00N 38°42' W 009°25'0 0.0
2017-Nov-10 08:20N 38°42' W 009°25'3 8.7
2017-Nov-10 08:00N 38°39' W 009°26'3 0.1
2017-Nov-09 04:54N 38°42' W 009°25'1 2.6
2017-Nov-09 04:30N 38°41' W 009°25'1 0.0
2017-Nov-08 02:09N 38°42' W 009°25'1 8.0
2017-Nov-08 02:00N 38°41' W 009°25'0 0.6
2017-Nov-08 01:30N 38°40' W 009°25'2 3.0
2017-Nov-08 01:00N 38°42' W 009°25'0 0.0
2017-Nov-08 00:30N 38°42' W 009°25'0 0.0
2017-Nov-08 00:00N 38°42' W 009°25'3 5.4
2017-Nov-07 23:30N 38°39' W 009°23'1 1.9
2017-Nov-07 23:00N 38°40' W 009°24'2 3.2
2017-Nov-07 22:28N 38°42' W 009°25'3 6.8
2017-Nov-07 22:00N 38°39' W 009°24'0 0.4
2017-Nov-07 21:30N 38°39' W 009°24'3 6.5
2017-Nov-07 21:00N 38°42' W 009°25'0 0.0
2017-Nov-07 07:03N 38°42' W 009°25'0 0.0
2017-Nov-07 07:01N 38°42' W 009°25'4 8.5
2017-Nov-07 06:31N 38°38' W 009°24'4 8.2
2017-Nov-07 06:00N 38°42' W 009°25'  
Track history (hours):
 
Tides and Currents Weather Stations Pressure Air Temp Water Temp Dewpoint Dewpoint Depression Visibility Wind Speed Wind Dir Waves Ship Positions

Torre De Belem

Last reported at 2017-Nov-16 11:12 UTC. Time now 2017-Nov-18 02:57 UTC.
Position N 38°42' W 009°25'.

Length 14 m.

MMSI: 263671850.

Date/timePositionNaut miles runAvg speedWind from/ knotsBaromVisibWave heightAir tempDewpointWater temp
2017-Nov-16 11:12N 38°42' W 009°25'1 4.8
2017-Nov-16 11:00N 38°41' W 009°24'1 0.0
2017-Nov-15 14:27N 38°42' W 009°25'510.2
2017-Nov-15 13:58N 38°37' W 009°23'510.7
2017-Nov-15 13:30N 38°42' W 009°25'0 0.0
2017-Nov-15 13:00N 38°42' W 009°25'5 9.2
2017-Nov-15 12:30N 38°37' W 009°23'5 9.1
2017-Nov-15 12:00N 38°42' W 009°25'0 0.0
2017-Nov-15 11:30N 38°42' W 009°25'0 0.0
2017-Nov-15 10:59N 38°42' W 009°25'510.1
2017-Nov-15 10:30N 38°38' W 009°22'5 9.6
2017-Nov-15 10:00N 38°42' W 009°25'0 0.0
2017-Nov-15 09:30N 38°42' W 009°25'0 0.0
2017-Nov-15 09:00N 38°42' W 009°25'0 0.0
2017-Nov-15 08:31N 38°42' W 009°25'0 0.0
2017-Nov-15 08:01N 38°42' W 009°25'0 0.0
2017-Nov-15 07:30N 38°42' W 009°25'0 0.0
2017-Nov-15 07:01N 38°42' W 009°25'0 0.0
2017-Nov-15 06:31N 38°42' W 009°25'0 0.0
2017-Nov-15 06:01N 38°42' W 009°25'0 0.0
2017-Nov-15 05:30N 38°42' W 009°25'2 4.7
2017-Nov-15 05:00N 38°40' W 009°24'815.2
2017-Nov-15 04:29N 38°42' W 009°14'0 0.0
2017-Nov-15 04:00N 38°42' W 009°14'0 0.0
2017-Nov-15 03:30N 38°42' W 009°14'0 0.0
2017-Nov-15 03:00N 38°42' W 009°14'4 7.6
2017-Nov-15 02:28N 38°40' W 009°19'510.6
2017-Nov-15 01:59N 38°42' W 009°25'0 0.0
2017-Nov-15 01:30N 38°42' W 009°25'0 0.0
2017-Nov-15 01:00N 38°42' W 009°25'0 0.0
2017-Nov-15 00:30N 38°42' W 009°25'2 4.2
2017-Nov-15 00:00N 38°40' W 009°26'2 4.2
2017-Nov-14 23:30N 38°42' W 009°25'0 0.0
2017-Nov-14 23:00N 38°42' W 009°25'0 0.0
2017-Nov-14 22:30N 38°42' W 009°25'1 1.1
2017-Nov-14 22:00N 38°41' W 009°24'2 4.3
2017-Nov-14 21:30N 38°39' W 009°24'3 5.4
2017-Nov-14 21:00N 38°42' W 009°25'0 0.0
2017-Nov-14 15:21N 38°42' W 009°25'411.4
2017-Nov-14 15:00N 38°38' W 009°25'4 7.7
2017-Nov-14 14:30N 38°42' W 009°25'0 0.0
2017-Nov-14 14:00N 38°42' W 009°25'0 0.0
2017-Nov-14 13:30N 38°42' W 009°25'1 1.5
2017-Nov-14 13:00N 38°41' W 009°25'1 0.2
2017-Nov-14 08:53N 38°42' W 009°25'512.3
2017-Nov-14 08:30N 38°37' W 009°25'5 9.2
2017-Nov-14 08:00N 38°42' W 009°25'0 0.3
2017-Nov-14 07:30N 38°42' W 009°25'0 0.0
2017-Nov-14 07:00N 38°42' W 009°25'0 0.0
2017-Nov-14 06:30N 38°42' W 009°25'2 3.4
2017-Nov-14 06:00N 38°40' W 009°26'2 0.1
2017-Nov-13 01:38N 38°42' W 009°25'1 9.8
2017-Nov-13 01:30N 38°40' W 009°25'1 0.3
2017-Nov-12 21:33N 38°42' W 009°25'0 0.0
2017-Nov-12 21:31N 38°42' W 009°25'0 0.0
2017-Nov-12 21:00N 38°42' W 009°25'1 2.1
2017-Nov-12 20:29N 38°41' W 009°25'1 2.1
2017-Nov-12 20:00N 38°42' W 009°25'0 0.3
2017-Nov-12 19:30N 38°42' W 009°25'0 0.0
2017-Nov-12 19:00N 38°42' W 009°25'0 0.0
2017-Nov-12 07:08N 38°42' W 009°25'213.2
2017-Nov-12 07:00N 38°40' W 009°24'2 3.8
2017-Nov-12 06:30N 38°42' W 009°25'0 0.0
2017-Nov-12 06:00N 38°42' W 009°25'0 0.0
2017-Nov-12 05:30N 38°42' W 009°25'3 5.8
2017-Nov-12 05:00N 38°41' W 009°22'3 0.4
2017-Nov-11 21:20N 38°42' W 009°25'413.7
2017-Nov-11 21:00N 38°37' W 009°24'4 0.7
2017-Nov-11 14:52N 38°42' W 009°25'0 0.0
2017-Nov-11 09:16N 38°42' W 009°25'2 9.8
2017-Nov-11 09:00N 38°39' W 009°26'2 2.6
2017-Nov-11 08:03N 38°42' W 009°25'0 0.0
2017-Nov-11 08:00N 38°42' W 009°25'5 9.7
2017-Nov-11 07:30N 38°37' W 009°23'5 9.7
2017-Nov-11 07:00N 38°42' W 009°25'0 0.0
2017-Nov-10 23:38N 38°42' W 009°25'1 6.4
2017-Nov-10 23:30N 38°41' W 009°24'2 3.8
2017-Nov-10 23:01N 38°39' W 009°24'3 0.2
2017-Nov-10 11:06N 38°42' W 009°25'0 1.3
2017-Nov-10 11:00N 38°42' W 009°25'0 0.0
2017-Nov-10 08:20N 38°42' W 009°25'3 8.7
2017-Nov-10 08:00N 38°39' W 009°26'3 0.1
2017-Nov-09 04:54N 38°42' W 009°25'1 2.6
2017-Nov-09 04:30N 38°41' W 009°25'1 0.0
2017-Nov-08 02:09N 38°42' W 009°25'1 8.0
2017-Nov-08 02:00N 38°41' W 009°25'0 0.6
2017-Nov-08 01:30N 38°40' W 009°25'2 3.0
2017-Nov-08 01:00N 38°42' W 009°25'0 0.0
2017-Nov-08 00:30N 38°42' W 009°25'0 0.0
2017-Nov-08 00:00N 38°42' W 009°25'3 5.4
2017-Nov-07 23:30N 38°39' W 009°23'1 1.9
2017-Nov-07 23:00N 38°40' W 009°24'2 3.2
2017-Nov-07 22:28N 38°42' W 009°25'3 6.8
2017-Nov-07 22:00N 38°39' W 009°24'0 0.4
2017-Nov-07 21:30N 38°39' W 009°24'3 6.5
2017-Nov-07 21:00N 38°42' W 009°25'0 0.0
2017-Nov-07 07:03N 38°42' W 009°25'0 0.0
2017-Nov-07 07:01N 38°42' W 009°25'4 8.5
2017-Nov-07 06:31N 38°38' W 009°24'4 8.2
2017-Nov-07 06:00N 38°42' W 009°25'  

Dump ship's entire track history